Hurlburt Field
KHRT : now visible

Airfield :











YOU CAN JOIN US ON...

 
LOGIN :

Register | Disclaimer

   EN    FR    IT 

 









Legend :    VFR   Marginal VFR   IFR   Intensive IFR   Very Intensive IFR
Visi :
Ceiling :
>= 8 km
>= 3000ft
5 to 8 km
1000 to 3000 ft
1500m to 5 km
500 to 1000 ft
800 to 1500m
200 to 500 ft
< 800m
< 200 ft
Symbols :   Thunderstorms  Fog  Heavy snow  Heavy precipitations  Wind > 20 kt







- Airport Elevation : 38 ft


KHRT - Hurlburt Field

CURRENT METAR :
  • 210656Z 00000KT 10SM FEW025 23/22 A3000 RMK AO2A SLP161 T02290217 $

EXPIRED METARs :
  • 210556Z 00000KT 10SM CLR 23/22 A3001 RMK AO2A SLP164 T02300218 10273 20230 402890224 58006 $
  • 210456Z 00000KT 10SM CLR 24/22 A3003 RMK AO2A SLP171 T02370223 $
  • 210359Z 00000KT 10SM FEW150 24/22 A3005 RMK A02A SLP177 T02370223 $

TAF TAF KHRT
Valid from the 21 at 02:00 until the 22 at 08:00 UTC


210200Z 2102/2208 22009KT 9999 FEW200 QNH3000INS
BECMG 2114/2115 30012KT 8000 -SHRA SCT040 BKN100 BKN200 QNH3003INS
BECMG 2120/2121 25008KT 9999 NSW FEW035 SCT120 BKN250 QNH3002INS
BECMG 2204/2205 VRB06KT 9999 BKN025 BKN080 BKN150 QNH3004INS TX29/2118Z TN23/2111Z
KZJX FIR / North America



MET'MAP, your aeronautical weather chart ! - Copyright ORBIFLY December 2007 - Disclaimer

ORBIFLY MET'MAP TEAM :

Programming & Development : Alexandra Zaïnal
Concept & Development : Baudouin d'Aumeries
Co-Development & Prog : Marc-Olivier Méhu
Technical & hardware support : Manuel Goepfert

Contact : metmap@orbifly.com




SOURCES & CREDITS :

   NOAA       Earth
Advisory